sensor_id;sensor_type;location;lat;lon;timestamp;P1;durP1;ratioP1;P2;durP2;ratioP2
70806;SDS011;58882;52.170;5.386;2023-11-19T00:00:08;9.98;;;2.80;;
70806;SDS011;58882;52.170;5.386;2023-11-19T00:02:39;10.73;;;2.97;;
70806;SDS011;58882;52.170;5.386;2023-11-19T00:05:07;10.75;;;2.97;;
70806;SDS011;58882;52.170;5.386;2023-11-19T00:07:36;11.98;;;3.08;;
70806;SDS011;58882;52.170;5.386;2023-11-19T00:10:03;14.48;;;2.92;;
70806;SDS011;58882;52.170;5.386;2023-11-19T00:12:33;9.88;;;2.50;;
70806;SDS011;58882;52.170;5.386;2023-11-19T00:15:00;12.48;;;2.60;;
70806;SDS011;58882;52.170;5.386;2023-11-19T00:17:27;12.88;;;2.83;;
70806;SDS011;58882;52.170;5.386;2023-11-19T00:19:54;13.10;;;2.92;;
70806;SDS011;58882;52.170;5.386;2023-11-19T00:22:21;12.15;;;3.22;;
70806;SDS011;58882;52.170;5.386;2023-11-19T00:24:49;10.65;;;2.42;;
70806;SDS011;58882;52.170;5.386;2023-11-19T00:27:16;10.27;;;2.53;;
70806;SDS011;58882;52.170;5.386;2023-11-19T00:29:43;10.18;;;2.30;;
70806;SDS011;58882;52.170;5.386;2023-11-19T00:32:11;9.35;;;2.20;;
70806;SDS011;58882;52.170;5.386;2023-11-19T00:34:38;9.75;;;2.50;;
70806;SDS011;58882;52.170;5.386;2023-11-19T00:37:05;9.68;;;2.28;;
70806;SDS011;58882;52.170;5.386;2023-11-19T00:39:33;13.98;;;2.63;;
70806;SDS011;58882;52.170;5.386;2023-11-19T00:42:00;11.63;;;2.22;;
70806;SDS011;58882;52.170;5.386;2023-11-19T00:44:27;13.68;;;2.47;;
70806;SDS011;58882;52.170;5.386;2023-11-19T00:46:54;12.88;;;2.45;;
70806;SDS011;58882;52.170;5.386;2023-11-19T00:49:20;13.00;;;2.70;;
70806;SDS011;58882;52.170;5.386;2023-11-19T00:51:47;17.73;;;2.72;;
70806;SDS011;58882;52.170;5.386;2023-11-19T00:54:15;11.45;;;2.20;;
70806;SDS011;58882;52.170;5.386;2023-11-19T00:56:42;13.13;;;2.50;;
70806;SDS011;58882;52.170;5.386;2023-11-19T00:59:10;17.38;;;3.00;;
70806;SDS011;58882;52.170;5.386;2023-11-19T01:01:37;16.20;;;2.65;;
70806;SDS011;58882;52.170;5.386;2023-11-19T01:04:05;13.23;;;2.90;;
70806;SDS011;58882;52.170;5.386;2023-11-19T01:06:32;13.25;;;2.63;;
70806;SDS011;58882;52.170;5.386;2023-11-19T01:09:00;18.60;;;2.72;;
70806;SDS011;58882;52.170;5.386;2023-11-19T01:11:27;19.50;;;2.70;;
70806;SDS011;58882;52.170;5.386;2023-11-19T01:13:54;14.52;;;2.40;;
70806;SDS011;58882;52.170;5.386;2023-11-19T01:16:21;13.77;;;2.60;;
70806;SDS011;58882;52.170;5.386;2023-11-19T01:18:49;13.43;;;2.53;;
70806;SDS011;58882;52.170;5.386;2023-11-19T01:21:16;17.25;;;2.70;;
70806;SDS011;58882;52.170;5.386;2023-11-19T01:23:43;17.38;;;2.38;;
70806;SDS011;58882;52.170;5.386;2023-11-19T01:26:10;19.65;;;3.17;;
70806;SDS011;58882;52.170;5.386;2023-11-19T01:28:39;24.15;;;3.13;;
70806;SDS011;58882;52.170;5.386;2023-11-19T01:31:17;23.45;;;2.90;;
70806;SDS011;58882;52.170;5.386;2023-11-19T01:33:44;20.70;;;3.03;;
70806;SDS011;58882;52.170;5.386;2023-11-19T01:36:13;15.48;;;2.45;;
70806;SDS011;58882;52.170;5.386;2023-11-19T01:38:41;22.05;;;3.13;;
70806;SDS011;58882;52.170;5.386;2023-11-19T01:41:08;16.90;;;2.47;;
70806;SDS011;58882;52.170;5.386;2023-11-19T01:43:36;15.55;;;2.45;;
70806;SDS011;58882;52.170;5.386;2023-11-19T01:46:04;22.35;;;3.10;;
70806;SDS011;58882;52.170;5.386;2023-11-19T01:48:33;18.42;;;2.70;;
70806;SDS011;58882;52.170;5.386;2023-11-19T01:51:05;24.50;;;3.20;;
70806;SDS011;58882;52.170;5.386;2023-11-19T01:53:33;18.08;;;3.17;;
70806;SDS011;58882;52.170;5.386;2023-11-19T01:56:03;15.80;;;2.65;;
70806;SDS011;58882;52.170;5.386;2023-11-19T01:58:36;17.50;;;2.88;;
70806;SDS011;58882;52.170;5.386;2023-11-19T02:01:03;21.90;;;3.08;;
70806;SDS011;58882;52.170;5.386;2023-11-19T02:03:32;18.42;;;3.05;;
70806;SDS011;58882;52.170;5.386;2023-11-19T02:06:00;21.10;;;2.80;;
70806;SDS011;58882;52.170;5.386;2023-11-19T02:08:27;19.65;;;2.95;;
70806;SDS011;58882;52.170;5.386;2023-11-19T02:10:56;27.70;;;3.60;;
70806;SDS011;58882;52.170;5.386;2023-11-19T02:13:24;21.48;;;3.15;;
70806;SDS011;58882;52.170;5.386;2023-11-19T02:15:53;25.02;;;3.00;;
70806;SDS011;58882;52.170;5.386;2023-11-19T02:18:23;19.42;;;2.72;;
70806;SDS011;58882;52.170;5.386;2023-11-19T02:23:27;26.73;;;3.70;;
70806;SDS011;58882;52.170;5.386;2023-11-19T02:28:36;20.63;;;3.28;;
70806;SDS011;58882;52.170;5.386;2023-11-19T02:31:03;24.35;;;3.13;;
70806;SDS011;58882;52.170;5.386;2023-11-19T02:33:37;26.05;;;3.30;;
70806;SDS011;58882;52.170;5.386;2023-11-19T02:36:05;29.33;;;3.60;;
70806;SDS011;58882;52.170;5.386;2023-11-19T02:41:04;23.98;;;3.53;;
70806;SDS011;58882;52.170;5.386;2023-11-19T02:43:36;23.80;;;3.20;;
70806;SDS011;58882;52.170;5.386;2023-11-19T02:46:04;26.08;;;3.42;;
70806;SDS011;58882;52.170;5.386;2023-11-19T02:48:38;17.10;;;2.80;;
70806;SDS011;58882;52.170;5.386;2023-11-19T02:51:06;21.95;;;3.28;;
70806;SDS011;58882;52.170;5.386;2023-11-19T02:53:36;25.95;;;3.22;;
70806;SDS011;58882;52.170;5.386;2023-11-19T02:56:05;23.85;;;3.70;;
70806;SDS011;58882;52.170;5.386;2023-11-19T02:58:38;23.98;;;3.25;;
70806;SDS011;58882;52.170;5.386;2023-11-19T03:01:05;25.10;;;3.60;;
70806;SDS011;58882;52.170;5.386;2023-11-19T03:03:40;22.92;;;3.25;;
70806;SDS011;58882;52.170;5.386;2023-11-19T03:06:08;25.48;;;3.92;;
70806;SDS011;58882;52.170;5.386;2023-11-19T03:08:38;20.42;;;3.40;;
70806;SDS011;58882;52.170;5.386;2023-11-19T03:11:05;33.22;;;3.58;;
70806;SDS011;58882;52.170;5.386;2023-11-19T03:13:32;26.75;;;3.70;;
70806;SDS011;58882;52.170;5.386;2023-11-19T03:15:59;28.05;;;4.22;;
70806;SDS011;58882;52.170;5.386;2023-11-19T03:18:26;25.75;;;3.60;;
70806;SDS011;58882;52.170;5.386;2023-11-19T03:20:54;22.35;;;4.15;;
70806;SDS011;58882;52.170;5.386;2023-11-19T03:23:21;28.55;;;4.03;;
70806;SDS011;58882;52.170;5.386;2023-11-19T03:25:49;26.38;;;3.38;;
70806;SDS011;58882;52.170;5.386;2023-11-19T03:28:16;26.00;;;3.33;;
70806;SDS011;58882;52.170;5.386;2023-11-19T03:30:43;27.52;;;3.70;;
70806;SDS011;58882;52.170;5.386;2023-11-19T03:33:10;24.10;;;3.33;;
70806;SDS011;58882;52.170;5.386;2023-11-19T03:35:37;23.83;;;3.70;;
70806;SDS011;58882;52.170;5.386;2023-11-19T03:38:04;22.63;;;3.67;;
70806;SDS011;58882;52.170;5.386;2023-11-19T03:40:31;26.67;;;5.30;;
70806;SDS011;58882;52.170;5.386;2023-11-19T03:42:58;26.10;;;3.83;;
70806;SDS011;58882;52.170;5.386;2023-11-19T03:45:25;30.58;;;4.05;;
70806;SDS011;58882;52.170;5.386;2023-11-19T03:47:52;29.98;;;3.85;;
70806;SDS011;58882;52.170;5.386;2023-11-19T03:50:19;27.95;;;3.55;;
70806;SDS011;58882;52.170;5.386;2023-11-19T03:52:47;27.35;;;3.90;;
70806;SDS011;58882;52.170;5.386;2023-11-19T03:55:14;35.80;;;4.03;;
70806;SDS011;58882;52.170;5.386;2023-11-19T03:57:42;23.52;;;3.40;;
70806;SDS011;58882;52.170;5.386;2023-11-19T04:00:08;32.97;;;4.35;;
70806;SDS011;58882;52.170;5.386;2023-11-19T04:02:40;28.95;;;3.53;;
70806;SDS011;58882;52.170;5.386;2023-11-19T04:05:08;28.77;;;3.78;;
70806;SDS011;58882;52.170;5.386;2023-11-19T04:07:36;29.52;;;4.50;;
70806;SDS011;58882;52.170;5.386;2023-11-19T04:10:03;31.23;;;4.65;;
70806;SDS011;58882;52.170;5.386;2023-11-19T04:12:31;24.27;;;3.70;;
70806;SDS011;58882;52.170;5.386;2023-11-19T04:14:58;31.20;;;3.55;;
70806;SDS011;58882;52.170;5.386;2023-11-19T04:17:27;34.08;;;4.20;;
70806;SDS011;58882;52.170;5.386;2023-11-19T04:19:54;30.02;;;3.78;;
70806;SDS011;58882;52.170;5.386;2023-11-19T04:22:21;29.92;;;4.40;;
70806;SDS011;58882;52.170;5.386;2023-11-19T04:24:48;32.33;;;4.20;;
70806;SDS011;58882;52.170;5.386;2023-11-19T04:27:15;23.50;;;3.60;;
70806;SDS011;58882;52.170;5.386;2023-11-19T04:29:42;31.58;;;4.45;;
70806;SDS011;58882;52.170;5.386;2023-11-19T04:32:09;29.27;;;4.07;;
70806;SDS011;58882;52.170;5.386;2023-11-19T04:34:36;27.95;;;4.03;;
70806;SDS011;58882;52.170;5.386;2023-11-19T04:37:03;28.77;;;3.92;;
70806;SDS011;58882;52.170;5.386;2023-11-19T04:39:33;28.25;;;3.85;;
70806;SDS011;58882;52.170;5.386;2023-11-19T04:42:00;32.65;;;4.35;;
70806;SDS011;58882;52.170;5.386;2023-11-19T04:44:27;24.17;;;3.70;;
70806;SDS011;58882;52.170;5.386;2023-11-19T04:46:55;28.88;;;3.63;;
70806;SDS011;58882;52.170;5.386;2023-11-19T04:49:22;30.15;;;3.83;;
70806;SDS011;58882;52.170;5.386;2023-11-19T04:51:49;32.05;;;4.32;;
70806;SDS011;58882;52.170;5.386;2023-11-19T04:54:17;29.48;;;3.90;;
70806;SDS011;58882;52.170;5.386;2023-11-19T04:56:45;29.00;;;3.67;;
70806;SDS011;58882;52.170;5.386;2023-11-19T04:59:13;29.02;;;4.28;;
70806;SDS011;58882;52.170;5.386;2023-11-19T05:01:40;26.52;;;3.53;;
70806;SDS011;58882;52.170;5.386;2023-11-19T05:04:08;25.75;;;3.88;;
70806;SDS011;58882;52.170;5.386;2023-11-19T05:06:35;29.27;;;3.80;;
70806;SDS011;58882;52.170;5.386;2023-11-19T05:09:04;31.25;;;3.97;;
70806;SDS011;58882;52.170;5.386;2023-11-19T05:11:32;32.55;;;3.85;;
70806;SDS011;58882;52.170;5.386;2023-11-19T05:14:02;31.05;;;3.78;;
70806;SDS011;58882;52.170;5.386;2023-11-19T05:16:30;31.10;;;4.35;;
70806;SDS011;58882;52.170;5.386;2023-11-19T05:18:58;27.65;;;3.67;;
70806;SDS011;58882;52.170;5.386;2023-11-19T05:21:25;29.30;;;3.70;;
70806;SDS011;58882;52.170;5.386;2023-11-19T05:23:52;30.98;;;4.20;;
70806;SDS011;58882;52.170;5.386;2023-11-19T05:26:21;26.92;;;3.70;;
70806;SDS011;58882;52.170;5.386;2023-11-19T05:28:49;35.47;;;4.43;;
70806;SDS011;58882;52.170;5.386;2023-11-19T05:31:17;29.20;;;3.80;;
70806;SDS011;58882;52.170;5.386;2023-11-19T05:33:44;30.80;;;4.13;;
70806;SDS011;58882;52.170;5.386;2023-11-19T05:36:12;27.20;;;3.70;;
70806;SDS011;58882;52.170;5.386;2023-11-19T05:38:39;31.58;;;3.83;;
70806;SDS011;58882;52.170;5.386;2023-11-19T05:41:06;23.13;;;3.42;;
70806;SDS011;58882;52.170;5.386;2023-11-19T05:43:33;32.08;;;3.58;;
70806;SDS011;58882;52.170;5.386;2023-11-19T05:46:02;27.40;;;4.00;;
70806;SDS011;58882;52.170;5.386;2023-11-19T05:48:43;26.48;;;3.60;;
70806;SDS011;58882;52.170;5.386;2023-11-19T05:51:12;28.48;;;3.70;;
70806;SDS011;58882;52.170;5.386;2023-11-19T05:53:41;29.15;;;3.58;;
70806;SDS011;58882;52.170;5.386;2023-11-19T05:56:08;29.30;;;3.78;;
70806;SDS011;58882;52.170;5.386;2023-11-19T05:58:36;29.48;;;3.92;;
70806;SDS011;58882;52.170;5.386;2023-11-19T06:01:04;34.05;;;4.07;;
70806;SDS011;58882;52.170;5.386;2023-11-19T06:03:33;28.55;;;4.70;;
70806;SDS011;58882;52.170;5.386;2023-11-19T06:06:00;28.13;;;3.78;;
70806;SDS011;58882;52.170;5.386;2023-11-19T06:08:27;30.25;;;3.65;;
70806;SDS011;58882;52.170;5.386;2023-11-19T06:10:55;28.25;;;4.05;;
70806;SDS011;58882;52.170;5.386;2023-11-19T06:13:22;33.50;;;4.28;;
70806;SDS011;58882;52.170;5.386;2023-11-19T06:15:51;32.00;;;4.43;;
70806;SDS011;58882;52.170;5.386;2023-11-19T06:18:18;25.92;;;4.13;;
70806;SDS011;58882;52.170;5.386;2023-11-19T06:20:47;29.85;;;4.07;;
70806;SDS011;58882;52.170;5.386;2023-11-19T06:23:14;30.35;;;3.88;;
70806;SDS011;58882;52.170;5.386;2023-11-19T06:25:41;24.45;;;3.50;;
70806;SDS011;58882;52.170;5.386;2023-11-19T06:28:08;24.73;;;3.30;;
70806;SDS011;58882;52.170;5.386;2023-11-19T06:30:35;27.50;;;4.05;;
70806;SDS011;58882;52.170;5.386;2023-11-19T06:33:02;27.48;;;4.53;;
70806;SDS011;58882;52.170;5.386;2023-11-19T06:35:30;27.10;;;3.85;;
70806;SDS011;58882;52.170;5.386;2023-11-19T06:38:03;29.40;;;4.05;;
70806;SDS011;58882;52.170;5.386;2023-11-19T06:40:32;34.42;;;4.22;;
70806;SDS011;58882;52.170;5.386;2023-11-19T06:43:01;25.45;;;3.60;;
70806;SDS011;58882;52.170;5.386;2023-11-19T06:47:57;22.08;;;3.05;;
70806;SDS011;58882;52.170;5.386;2023-11-19T06:50:25;29.73;;;3.20;;
70806;SDS011;58882;52.170;5.386;2023-11-19T06:52:51;25.27;;;3.90;;
70806;SDS011;58882;52.170;5.386;2023-11-19T06:55:18;23.73;;;3.67;;
70806;SDS011;58882;52.170;5.386;2023-11-19T06:57:45;26.35;;;3.60;;
70806;SDS011;58882;52.170;5.386;2023-11-19T07:00:12;27.25;;;3.70;;
70806;SDS011;58882;52.170;5.386;2023-11-19T07:02:39;29.25;;;4.20;;
70806;SDS011;58882;52.170;5.386;2023-11-19T07:05:08;29.65;;;3.95;;
70806;SDS011;58882;52.170;5.386;2023-11-19T07:07:36;33.45;;;3.80;;
70806;SDS011;58882;52.170;5.386;2023-11-19T07:10:04;29.13;;;4.13;;
70806;SDS011;58882;52.170;5.386;2023-11-19T07:12:41;26.25;;;3.30;;
70806;SDS011;58882;52.170;5.386;2023-11-19T07:15:08;25.73;;;3.92;;
70806;SDS011;58882;52.170;5.386;2023-11-19T07:20:07;25.85;;;3.83;;
70806;SDS011;58882;52.170;5.386;2023-11-19T07:22:34;29.63;;;3.38;;
70806;SDS011;58882;52.170;5.386;2023-11-19T07:25:01;31.45;;;4.40;;
70806;SDS011;58882;52.170;5.386;2023-11-19T07:27:28;36.72;;;4.38;;
70806;SDS011;58882;52.170;5.386;2023-11-19T07:29:55;30.70;;;3.72;;
70806;SDS011;58882;52.170;5.386;2023-11-19T07:32:22;26.85;;;3.88;;
70806;SDS011;58882;52.170;5.386;2023-11-19T07:34:49;25.77;;;3.88;;
70806;SDS011;58882;52.170;5.386;2023-11-19T07:37:16;26.67;;;3.60;;
70806;SDS011;58882;52.170;5.386;2023-11-19T07:39:43;29.42;;;3.35;;
70806;SDS011;58882;52.170;5.386;2023-11-19T07:42:10;29.08;;;3.83;;
70806;SDS011;58882;52.170;5.386;2023-11-19T07:44:37;26.80;;;3.55;;
70806;SDS011;58882;52.170;5.386;2023-11-19T07:47:04;24.52;;;3.92;;
70806;SDS011;58882;52.170;5.386;2023-11-19T07:49:31;26.20;;;3.88;;
70806;SDS011;58882;52.170;5.386;2023-11-19T07:51:57;24.80;;;3.80;;
70806;SDS011;58882;52.170;5.386;2023-11-19T07:54:25;28.10;;;3.55;;
70806;SDS011;58882;52.170;5.386;2023-11-19T07:56:51;27.65;;;4.10;;
70806;SDS011;58882;52.170;5.386;2023-11-19T07:59:18;28.17;;;3.50;;
70806;SDS011;58882;52.170;5.386;2023-11-19T08:01:45;24.85;;;3.13;;
70806;SDS011;58882;52.170;5.386;2023-11-19T08:04:12;24.80;;;3.83;;
70806;SDS011;58882;52.170;5.386;2023-11-19T08:06:39;25.33;;;3.47;;
70806;SDS011;58882;52.170;5.386;2023-11-19T08:09:06;28.75;;;3.90;;
70806;SDS011;58882;52.170;5.386;2023-11-19T08:11:40;31.02;;;3.92;;
70806;SDS011;58882;52.170;5.386;2023-11-19T08:14:08;29.20;;;3.72;;
70806;SDS011;58882;52.170;5.386;2023-11-19T08:16:35;23.98;;;3.60;;
70806;SDS011;58882;52.170;5.386;2023-11-19T08:19:03;35.65;;;4.32;;
70806;SDS011;58882;52.170;5.386;2023-11-19T08:21:30;27.17;;;4.13;;
70806;SDS011;58882;52.170;5.386;2023-11-19T08:23:57;30.20;;;3.88;;
70806;SDS011;58882;52.170;5.386;2023-11-19T08:26:24;22.92;;;3.45;;
70806;SDS011;58882;52.170;5.386;2023-11-19T08:28:51;21.60;;;3.38;;
70806;SDS011;58882;52.170;5.386;2023-11-19T08:31:18;24.23;;;3.45;;
70806;SDS011;58882;52.170;5.386;2023-11-19T08:33:45;26.90;;;3.13;;
70806;SDS011;58882;52.170;5.386;2023-11-19T08:36:15;25.83;;;3.25;;
70806;SDS011;58882;52.170;5.386;2023-11-19T08:38:43;28.15;;;4.10;;
70806;SDS011;58882;52.170;5.386;2023-11-19T08:41:10;26.88;;;3.40;;
70806;SDS011;58882;52.170;5.386;2023-11-19T08:43:37;27.10;;;3.60;;
70806;SDS011;58882;52.170;5.386;2023-11-19T08:46:08;28.55;;;3.92;;
70806;SDS011;58882;52.170;5.386;2023-11-19T08:48:37;28.40;;;3.85;;
70806;SDS011;58882;52.170;5.386;2023-11-19T08:51:04;20.10;;;3.70;;
70806;SDS011;58882;52.170;5.386;2023-11-19T08:53:32;32.05;;;5.53;;
70806;SDS011;58882;52.170;5.386;2023-11-19T08:55:59;25.80;;;4.10;;
70806;SDS011;58882;52.170;5.386;2023-11-19T08:58:26;23.15;;;3.50;;
70806;SDS011;58882;52.170;5.386;2023-11-19T09:00:53;25.52;;;4.03;;
70806;SDS011;58882;52.170;5.386;2023-11-19T09:03:20;27.25;;;3.92;;
70806;SDS011;58882;52.170;5.386;2023-11-19T09:05:47;25.92;;;3.53;;
70806;SDS011;58882;52.170;5.386;2023-11-19T09:08:14;25.88;;;3.80;;
70806;SDS011;58882;52.170;5.386;2023-11-19T09:10:41;24.70;;;3.80;;
70806;SDS011;58882;52.170;5.386;2023-11-19T09:13:08;26.73;;;3.95;;
70806;SDS011;58882;52.170;5.386;2023-11-19T09:15:35;23.75;;;3.83;;
70806;SDS011;58882;52.170;5.386;2023-11-19T09:18:02;25.75;;;3.10;;
70806;SDS011;58882;52.170;5.386;2023-11-19T09:20:30;26.00;;;3.92;;
70806;SDS011;58882;52.170;5.386;2023-11-19T09:23:04;22.98;;;3.30;;
70806;SDS011;58882;52.170;5.386;2023-11-19T09:28:02;23.73;;;3.70;;
70806;SDS011;58882;52.170;5.386;2023-11-19T09:30:29;22.05;;;3.10;;
70806;SDS011;58882;52.170;5.386;2023-11-19T09:32:56;22.13;;;3.22;;
70806;SDS011;58882;52.170;5.386;2023-11-19T09:35:23;23.83;;;3.55;;
70806;SDS011;58882;52.170;5.386;2023-11-19T09:37:50;25.45;;;3.33;;
70806;SDS011;58882;52.170;5.386;2023-11-19T09:40:16;25.52;;;3.63;;
70806;SDS011;58882;52.170;5.386;2023-11-19T09:42:44;24.15;;;3.78;;
70806;SDS011;58882;52.170;5.386;2023-11-19T09:45:15;27.48;;;3.83;;
70806;SDS011;58882;52.170;5.386;2023-11-19T09:47:44;22.65;;;3.50;;
70806;SDS011;58882;52.170;5.386;2023-11-19T09:50:18;26.33;;;4.38;;
70806;SDS011;58882;52.170;5.386;2023-11-19T09:52:46;21.05;;;3.40;;
70806;SDS011;58882;52.170;5.386;2023-11-19T09:55:14;22.52;;;3.20;;
70806;SDS011;58882;52.170;5.386;2023-11-19T09:57:41;25.50;;;3.55;;
70806;SDS011;58882;52.170;5.386;2023-11-19T10:00:10;30.15;;;3.58;;
70806;SDS011;58882;52.170;5.386;2023-11-19T10:02:41;25.17;;;3.65;;
70806;SDS011;58882;52.170;5.386;2023-11-19T10:05:13;21.45;;;3.50;;
70806;SDS011;58882;52.170;5.386;2023-11-19T10:07:41;21.88;;;3.35;;
70806;SDS011;58882;52.170;5.386;2023-11-19T10:10:09;22.85;;;3.75;;
70806;SDS011;58882;52.170;5.386;2023-11-19T10:12:40;16.50;;;3.20;;
70806;SDS011;58882;52.170;5.386;2023-11-19T10:15:23;25.65;;;3.65;;
70806;SDS011;58882;52.170;5.386;2023-11-19T10:17:56;24.10;;;3.63;;
70806;SDS011;58882;52.170;5.386;2023-11-19T10:20:24;19.15;;;3.40;;
70806;SDS011;58882;52.170;5.386;2023-11-19T10:22:54;22.25;;;3.45;;
70806;SDS011;58882;52.170;5.386;2023-11-19T10:25:23;19.30;;;3.50;;
70806;SDS011;58882;52.170;5.386;2023-11-19T10:27:54;23.52;;;3.45;;
70806;SDS011;58882;52.170;5.386;2023-11-19T10:30:26;23.80;;;3.45;;
70806;SDS011;58882;52.170;5.386;2023-11-19T10:33:10;21.52;;;3.55;;
70806;SDS011;58882;52.170;5.386;2023-11-19T10:38:28;21.45;;;3.95;;
70806;SDS011;58882;52.170;5.386;2023-11-19T10:40:55;22.05;;;3.15;;
70806;SDS011;58882;52.170;5.386;2023-11-19T10:43:22;23.55;;;3.50;;
70806;SDS011;58882;52.170;5.386;2023-11-19T10:45:50;22.70;;;3.65;;
70806;SDS011;58882;52.170;5.386;2023-11-19T10:48:17;19.05;;;3.20;;
70806;SDS011;58882;52.170;5.386;2023-11-19T10:50:45;21.00;;;3.25;;
70806;SDS011;58882;52.170;5.386;2023-11-19T10:53:15;23.80;;;3.58;;
70806;SDS011;58882;52.170;5.386;2023-11-19T10:55:46;26.05;;;3.30;;
70806;SDS011;58882;52.170;5.386;2023-11-19T10:58:15;27.85;;;3.83;;
70806;SDS011;58882;52.170;5.386;2023-11-19T11:00:51;23.75;;;4.00;;
70806;SDS011;58882;52.170;5.386;2023-11-19T11:03:24;21.63;;;3.58;;
70806;SDS011;58882;52.170;5.386;2023-11-19T11:05:52;26.08;;;3.45;;
70806;SDS011;58882;52.170;5.386;2023-11-19T11:08:20;24.15;;;3.40;;
70806;SDS011;58882;52.170;5.386;2023-11-19T11:10:54;21.58;;;3.42;;
70806;SDS011;58882;52.170;5.386;2023-11-19T11:13:24;23.45;;;2.95;;
70806;SDS011;58882;52.170;5.386;2023-11-19T11:15:51;23.52;;;3.58;;
70806;SDS011;58882;52.170;5.386;2023-11-19T11:18:21;23.08;;;3.80;;
70806;SDS011;58882;52.170;5.386;2023-11-19T11:20:48;23.20;;;3.20;;
70806;SDS011;58882;52.170;5.386;2023-11-19T11:37:33;21.30;;;3.05;;
70806;SDS011;58882;52.170;5.386;2023-11-19T11:40:05;23.13;;;3.28;;
70806;SDS011;58882;52.170;5.386;2023-11-19T11:42:36;27.23;;;3.92;;
70806;SDS011;58882;52.170;5.386;2023-11-19T11:45:05;19.67;;;3.30;;
70806;SDS011;58882;52.170;5.386;2023-11-19T11:50:12;23.10;;;3.20;;
70806;SDS011;58882;52.170;5.386;2023-11-19T11:55:36;18.58;;;2.53;;
70806;SDS011;58882;52.170;5.386;2023-11-19T11:58:18;22.42;;;3.15;;
70806;SDS011;58882;52.170;5.386;2023-11-19T12:00:47;20.33;;;2.90;;
70806;SDS011;58882;52.170;5.386;2023-11-19T12:03:15;24.83;;;3.15;;
70806;SDS011;58882;52.170;5.386;2023-11-19T12:05:45;20.63;;;3.00;;
70806;SDS011;58882;52.170;5.386;2023-11-19T12:08:14;25.98;;;3.65;;
70806;SDS011;58882;52.170;5.386;2023-11-19T12:13:16;25.00;;;3.60;;
70806;SDS011;58882;52.170;5.386;2023-11-19T12:18:27;20.90;;;3.00;;
70806;SDS011;58882;52.170;5.386;2023-11-19T12:20:55;19.92;;;2.65;;
70806;SDS011;58882;52.170;5.386;2023-11-19T12:23:23;26.00;;;3.33;;
70806;SDS011;58882;52.170;5.386;2023-11-19T12:25:50;19.55;;;3.35;;
70806;SDS011;58882;52.170;5.386;2023-11-19T12:28:17;19.50;;;3.38;;
70806;SDS011;58882;52.170;5.386;2023-11-19T12:30:44;22.98;;;3.03;;
70806;SDS011;58882;52.170;5.386;2023-11-19T12:33:12;23.92;;;2.90;;
70806;SDS011;58882;52.170;5.386;2023-11-19T12:35:40;17.75;;;3.20;;
70806;SDS011;58882;52.170;5.386;2023-11-19T12:38:07;18.65;;;3.05;;
70806;SDS011;58882;52.170;5.386;2023-11-19T12:40:34;21.92;;;3.22;;
70806;SDS011;58882;52.170;5.386;2023-11-19T12:43:01;20.75;;;2.95;;
70806;SDS011;58882;52.170;5.386;2023-11-19T12:45:37;18.40;;;3.00;;
70806;SDS011;58882;52.170;5.386;2023-11-19T12:48:05;23.10;;;3.30;;
70806;SDS011;58882;52.170;5.386;2023-11-19T12:50:52;20.88;;;2.88;;
70806;SDS011;58882;52.170;5.386;2023-11-19T12:53:25;21.27;;;3.25;;
70806;SDS011;58882;52.170;5.386;2023-11-19T12:55:53;23.20;;;3.65;;
70806;SDS011;58882;52.170;5.386;2023-11-19T12:58:28;21.27;;;3.28;;
70806;SDS011;58882;52.170;5.386;2023-11-19T13:01:05;15.40;;;2.80;;
70806;SDS011;58882;52.170;5.386;2023-11-19T13:03:34;22.45;;;3.08;;
70806;SDS011;58882;52.170;5.386;2023-11-19T13:08:37;17.45;;;2.78;;
70806;SDS011;58882;52.170;5.386;2023-11-19T13:11:08;20.33;;;2.83;;
70806;SDS011;58882;52.170;5.386;2023-11-19T13:13:54;19.95;;;2.60;;
70806;SDS011;58882;52.170;5.386;2023-11-19T13:16:30;18.27;;;2.80;;
70806;SDS011;58882;52.170;5.386;2023-11-19T13:18:58;19.55;;;2.80;;
70806;SDS011;58882;52.170;5.386;2023-11-19T13:21:26;13.30;;;2.38;;
70806;SDS011;58882;52.170;5.386;2023-11-19T13:23:53;18.58;;;2.70;;
70806;SDS011;58882;52.170;5.386;2023-11-19T13:26:20;19.60;;;2.95;;
70806;SDS011;58882;52.170;5.386;2023-11-19T13:28:47;17.45;;;2.40;;
70806;SDS011;58882;52.170;5.386;2023-11-19T13:31:14;20.35;;;2.72;;
70806;SDS011;58882;52.170;5.386;2023-11-19T13:33:41;19.88;;;3.33;;
70806;SDS011;58882;52.170;5.386;2023-11-19T13:36:08;20.15;;;2.90;;
70806;SDS011;58882;52.170;5.386;2023-11-19T13:38:39;21.95;;;2.92;;
70806;SDS011;58882;52.170;5.386;2023-11-19T13:41:10;17.88;;;2.92;;
70806;SDS011;58882;52.170;5.386;2023-11-19T13:43:39;17.58;;;2.83;;
70806;SDS011;58882;52.170;5.386;2023-11-19T13:46:06;16.67;;;2.80;;
70806;SDS011;58882;52.170;5.386;2023-11-19T13:48:33;21.65;;;3.00;;
70806;SDS011;58882;52.170;5.386;2023-11-19T13:51:00;18.92;;;2.55;;
70806;SDS011;58882;52.170;5.386;2023-11-19T13:53:26;22.88;;;3.42;;
70806;SDS011;58882;52.170;5.386;2023-11-19T13:55:53;19.17;;;3.28;;
70806;SDS011;58882;52.170;5.386;2023-11-19T13:58:20;17.30;;;2.75;;
70806;SDS011;58882;52.170;5.386;2023-11-19T14:00:47;17.10;;;2.88;;
70806;SDS011;58882;52.170;5.386;2023-11-19T14:03:14;16.95;;;2.88;;
70806;SDS011;58882;52.170;5.386;2023-11-19T14:05:41;21.00;;;2.65;;
70806;SDS011;58882;52.170;5.386;2023-11-19T14:08:09;16.23;;;2.38;;
70806;SDS011;58882;52.170;5.386;2023-11-19T14:10:51;16.90;;;2.67;;
70806;SDS011;58882;52.170;5.386;2023-11-19T14:13:18;17.48;;;2.75;;
70806;SDS011;58882;52.170;5.386;2023-11-19T14:15:45;23.77;;;3.28;;
70806;SDS011;58882;52.170;5.386;2023-11-19T14:18:15;18.77;;;2.58;;
70806;SDS011;58882;52.170;5.386;2023-11-19T14:20:43;19.30;;;3.08;;
70806;SDS011;58882;52.170;5.386;2023-11-19T14:23:10;18.88;;;2.95;;
70806;SDS011;58882;52.170;5.386;2023-11-19T14:25:37;22.40;;;2.80;;
70806;SDS011;58882;52.170;5.386;2023-11-19T14:28:04;22.67;;;2.80;;
70806;SDS011;58882;52.170;5.386;2023-11-19T14:30:32;16.27;;;2.83;;
70806;SDS011;58882;52.170;5.386;2023-11-19T14:33:00;20.33;;;3.03;;
70806;SDS011;58882;52.170;5.386;2023-11-19T14:35:27;19.38;;;2.78;;
70806;SDS011;58882;52.170;5.386;2023-11-19T14:37:56;25.40;;;3.20;;
70806;SDS011;58882;52.170;5.386;2023-11-19T14:40:23;16.80;;;2.85;;
70806;SDS011;58882;52.170;5.386;2023-11-19T14:43:08;13.30;;;2.30;;
70806;SDS011;58882;52.170;5.386;2023-11-19T14:45:38;22.38;;;2.90;;
70806;SDS011;58882;52.170;5.386;2023-11-19T14:48:15;14.85;;;2.13;;
70806;SDS011;58882;52.170;5.386;2023-11-19T14:50:42;18.27;;;2.55;;
70806;SDS011;58882;52.170;5.386;2023-11-19T14:53:09;14.75;;;2.60;;
70806;SDS011;58882;52.170;5.386;2023-11-19T14:55:35;15.88;;;2.35;;
70806;SDS011;58882;52.170;5.386;2023-11-19T14:58:02;15.60;;;2.80;;
70806;SDS011;58882;52.170;5.386;2023-11-19T15:00:36;14.38;;;2.30;;
70806;SDS011;58882;52.170;5.386;2023-11-19T15:03:03;17.55;;;2.67;;
70806;SDS011;58882;52.170;5.386;2023-11-19T15:05:30;17.20;;;2.58;;
70806;SDS011;58882;52.170;5.386;2023-11-19T15:07:57;16.10;;;2.50;;
70806;SDS011;58882;52.170;5.386;2023-11-19T15:10:24;19.33;;;2.97;;
70806;SDS011;58882;52.170;5.386;2023-11-19T15:12:51;25.75;;;3.03;;
70806;SDS011;58882;52.170;5.386;2023-11-19T15:15:20;22.52;;;3.30;;
70806;SDS011;58882;52.170;5.386;2023-11-19T15:17:49;20.67;;;2.95;;
70806;SDS011;58882;52.170;5.386;2023-11-19T15:20:17;20.95;;;2.85;;
70806;SDS011;58882;52.170;5.386;2023-11-19T15:22:46;16.98;;;2.70;;
70806;SDS011;58882;52.170;5.386;2023-11-19T15:25:13;22.52;;;3.35;;
70806;SDS011;58882;52.170;5.386;2023-11-19T15:27:40;23.48;;;3.00;;